Central Oregon RPC :: LAKEVIEW, OR B

liberation: 2021-04-23  07:30     latitude: 42.211122     longitude: -120.355558 111 birds
# LOFT PRING MILES ARRIVAL SPEED ToWin
1 ROCKY TOP AU19-CORP-4400 145.004 2021-04-23 10:11:14.104 1582.830 00:00:00
2 ROCKY TOP AU19-ARPU-29012 145.004 2021-04-23 10:11:14.472 1582.770 00:00:00
3 ROCKY TOP AU18-CORP-3313 145.004 2021-04-23 10:11:15.426 1582.614 00:00:01
4 ROCKY TOP AU19-CORP-4477 145.004 2021-04-23 10:11:15.795 1582.554 00:00:02
5 ROCKY TOP AU19-CORP-4405 145.004 2021-04-23 10:11:16.676 1582.410 00:00:03
6 ROCKY TOP AU20-CORP-4476 145.004 2021-04-23 10:11:22.184 1581.509 00:00:08
7 ROCKY TOP AU19-CORP-4473 145.004 2021-04-23 10:11:34.532 1579.495 00:00:20
8 ROCKY TOP AU18-CORP-3353 145.004 2021-04-23 10:11:35.834 1579.283 00:00:22
9 ROCKY TOP AU20-CORP-4400 145.004 2021-04-23 10:11:39.240 1578.728 00:00:25
10 ROCKY TOP AU19-CORP-4474 145.004 2021-04-23 10:11:40.512 1578.521 00:00:26
11 ROCKY TOP AU18-CORP-3371 145.004 2021-04-23 10:11:48.692 1577.191 00:00:35
12 STEELE LOFT AU20-CORP-5088 152.432 2021-04-23 10:20:13.211 1576.077 00:00:44
13 TOPIGEONUSA AU19-CORP-4908 152.123 2021-04-23 10:19:55.244 1575.651 00:00:46
14 TOPIGEONUSA AU19-CORP-4938 152.123 2021-04-23 10:19:56.621 1575.438 00:00:48
15 TOPIGEONUSA AU20-CORP-4868 152.123 2021-04-23 10:19:58.594 1575.133 00:00:50
16 TOPIGEONUSA AU19-CORP-4912 152.123 2021-04-23 10:20:05.145 1574.122 00:00:56
17 ROCKY TOP AU19-CORP-4435 145.004 2021-04-23 10:12:37.255 1569.341 00:01:23
18 ROCKY TOP AU16-CORP-7701 145.004 2021-04-23 10:12:38.815 1569.091 00:01:25
19 STEELE LOFT AU19-CORP-4006 152.432 2021-04-23 10:22:23.987 1556.151 00:02:54
20 STEELE LOFT AU20-CORP-5018 152.432 2021-04-23 10:22:26.630 1555.754 00:02:57
21 ROCKY TOP AU18-CORP-3354 145.004 2021-04-23 10:14:10.020 1554.562 00:02:56
22 TOPIGEONUSA AU17-CAPT-0054 152.123 2021-04-23 10:24:40.110 1532.822 00:05:31
23 TOPIGEONUSA AU18-CORP-4272 152.123 2021-04-23 10:24:44.435 1532.190 00:05:35
24 TIM GRAVES AU19-CORP-4239 143.484 2021-04-23 10:14:50.187 1532.019 00:05:17
25 TOPIGEONUSA AU20-CORP-4377 152.123 2021-04-23 10:24:45.879 1531.979 00:05:37
26 TOPIGEONUSA AU20-CORP-4333 152.123 2021-04-23 10:24:57.157 1530.333 00:05:48
27 TIM GRAVES AU13-TCW-3849 143.484 2021-04-23 10:15:05.607 1529.634 00:05:33
28 TOPIGEONUSA AU19-CORP-5136 152.123 2021-04-23 10:25:45.710 1523.287 00:06:37
29 RUETER FAMILY LOFT AU19-CORP-5358 178.741 2021-04-23 10:56:44.887 1521.579 00:08:00
30 STEELE LOFT AU19-JEDD-1973 152.432 2021-04-23 10:27:41.087 1509.865 00:08:11
31 STEELE LOFT AU20-CORP-5011 152.432 2021-04-23 10:27:49.286 1508.705 00:08:20
32 STEELE LOFT AU20-CORP-5017 152.432 2021-04-23 10:28:00.462 1507.126 00:08:31
33 TOPIGEONUSA AU19-CORP-5140 152.123 2021-04-23 10:28:08.257 1502.972 00:08:59
34 TOPIGEONUSA AU19-CORP-5124 152.123 2021-04-23 10:28:08.663 1502.914 00:09:00
35 ROCKY TOP AU19-CORP-4454 145.004 2021-04-23 10:20:51.910 1493.621 00:09:38
36 ROCKY TOP AU17-CORP-0798 145.004 2021-04-23 10:21:21.154 1489.372 00:10:07
37 ROCKY TOP AU16-CORP-7143 145.004 2021-04-23 10:21:27.480 1488.456 00:10:13
38 RUETER FAMILY LOFT AU19-CORP-5408 178.741 2021-04-23 11:02:05.903 1483.196 00:13:21
39 RUETER FAMILY LOFT AU19-CORP-5477 178.741 2021-04-23 11:02:14.032 1482.249 00:13:29
40 STEELE LOFT AU20-CORP-5034 152.432 2021-04-23 10:31:43.348 1476.318 00:12:14
41 ROCKY TOP AU17-OTC-0317 145.004 2021-04-23 10:22:57.937 1475.483 00:11:44
42 ROCKY TOP AU18-CORP-3351 145.004 2021-04-23 10:23:15.460 1472.995 00:12:01
43 TIM GRAVES AU16-CORP-6702 143.484 2021-04-23 10:22:10.456 1466.727 00:12:38
44 AMERICAN LOFT AU19-CORP-4711 148.79 2021-04-23 10:28:32.503 1466.721 00:13:06
45 TIM GRAVES AU17-FHI-0202 143.484 2021-04-23 10:22:13.500 1466.295 00:12:41
46 TOPIGEONUSA AU18-CORP-4205 152.123 2021-04-23 10:33:14.578 1461.097 00:14:06
47 ROCKY TOP AU18-CORP-3300 145.004 2021-04-23 10:25:07.844 1457.241 00:13:54
48 ROCKY TOP AU18-CORP-3310 145.004 2021-04-23 10:25:15.245 1456.216 00:14:01
49 TIM GRAVES AU16-AUB-0602 143.484 2021-04-23 10:24:00.000 1451.337 00:14:27
50 TIM GRAVES AU17-CORP-2034 143.484 2021-04-23 10:24:02.891 1450.935 00:14:30
51 RUETER FAMILY LOFT AU19-CORP-5447 178.741 2021-04-23 11:07:32.337 1446.102 00:18:47
52 TOPIGEONUSA AU20-CORP-4841 152.123 2021-04-23 10:36:29.230 1435.679 00:17:20
53 TIM GRAVES AU17-FHI-1014 143.484 2021-04-23 10:26:51.974 1427.817 00:17:19
54 RUETER FAMILY LOFT AU19-CORP-5310 178.741 2021-04-23 11:10:30.746 1426.602 00:21:46
55 RUETER FAMILY LOFT AU19-CORP-5330 178.741 2021-04-23 11:10:37.947 1425.826 00:21:53
56 AMERICAN LOFT AU19-CORP-4699 148.79 2021-04-23 10:34:17.307 1420.983 00:18:51
57 RUETER FAMILY LOFT AU19-CORP-5335 178.741 2021-04-23 11:11:49.325 1418.179 00:23:04
58 RUETER FAMILY LOFT AU20-CORP-4550 178.741 2021-04-23 11:11:51.330 1417.966 00:23:06
59 AMERICAN LOFT AU19-CORP-4652 148.79 2021-04-23 10:35:21.821 1412.741 00:19:55
60 AMERICAN LOFT AU19-CORP-4647 148.79 2021-04-23 10:35:58.419 1408.107 00:20:32
61 AMERICAN LOFT AU19-CORP-4605 148.79 2021-04-23 10:35:59.748 1407.940 00:20:33
62 AMERICAN LOFT AU19-CORP-4746 148.79 2021-04-23 10:37:58.411 1393.126 00:22:32
63 AMERICAN LOFT AU19-CORP-4673 148.79 2021-04-23 10:38:03.739 1392.468 00:22:37
64 AMERICAN LOFT AU19-CORP-4635 148.79 2021-04-23 10:38:10.024 1391.693 00:22:43
65 AMERICAN LOFT AU20-CORP-5573 148.79 2021-04-23 10:38:13.463 1391.270 00:22:47
66 STEELE LOFT AU20-CORP-5012 152.432 2021-04-23 10:45:57.248 1369.097 00:26:28
67 STEELE LOFT AU20-CORP-5041 152.432 2021-04-23 10:46:23.330 1366.066 00:26:54
68 TOPIGEONUSA AU20-CORP-4330 152.123 2021-04-23 10:47:03.501 1358.662 00:27:55
69 ROCKY TOP AU18-CORP-3343 145.004 2021-04-23 10:47:55.670 1289.398 00:36:42
70 TIM GRAVES AU16-FHI-0243 143.484 2021-04-23 11:06:40.682 1165.474 00:57:08
71 RUETER FAMILY LOFT AU18-CORP-2684 178.741 2021-04-23 12:11:15.756 1118.469 01:22:31
72 AMERICAN LOFT AU17-CORP-0062 148.79 2021-04-23 11:24:35.651 1116.272 01:09:09
73 STEELE LOFT AU19-CORP-4004 152.432 2021-04-23 11:32:59.415 1104.078 01:13:30
74 RUETER FAMILY LOFT AU19-CORP-5458 178.741 2021-04-23 12:16:56.239 1096.349 01:28:11
75 AMERICAN LOFT AU20-CORP-5485 148.79 2021-04-23 11:39:44.606 1048.559 01:24:18
76 RUETER FAMILY LOFT AU19-CORP-5377 178.741 2021-04-23 12:38:46.534 1018.810 01:50:02
77 RUETER FAMILY LOFT AU19-CORP-5367 178.741 2021-04-23 12:40:20.826 1013.651 01:51:36
78 RUETER FAMILY LOFT AU19-CORP-5455 178.741 2021-04-23 12:40:23.885 1013.484 01:51:39
79 STEELE LOFT AU19-CORP-4035 152.432 2021-04-23 12:08:21.107 963.817 01:48:51
80 AMERICAN LOFT AU19-CORP-4681 148.79 2021-04-23 12:04:20.958 954.516 01:48:54
81 AMERICAN LOFT AU18-CORP-2550 148.79 2021-04-23 12:06:15.322 947.930 01:50:49
82 AMERICAN LOFT AU20-CORP-5530 148.79 2021-04-23 12:06:58.410 945.473 01:51:32
83 AMERICAN LOFT AU19-CORP-4751 148.79 2021-04-23 12:33:14.067 863.592 02:17:47
84 RUETER FAMILY LOFT AU19-CORP-5456 178.741 2021-04-23 13:51:01.172 825.636 03:02:16
85 AMERICAN LOFT AU19-CORP-4706 148.79 2021-04-23 13:12:41.148 764.172 02:57:14
86 AMERICAN LOFT AU18-CORP-2549 148.79 2021-04-23 16:53:48.642 464.466 06:38:22
AMERICAN LOFT AU18-CORP-2818 0 0000-00-00 00:00:00.000 0.000 00:00:00
AMERICAN LOFT AU19-CORP-4735 0 0000-00-00 00:00:00.000 0.000 00:00:00
LUCAS CRAMER AU17-CORP-1074 0 0000-00-00 00:00:00.000 0.000 00:00:00
LUCAS CRAMER AU18-CORP-2247 0 0000-00-00 00:00:00.000 0.000 00:00:00
LUCAS CRAMER AU20-AA-0924 0 0000-00-00 00:00:00.000 0.000 00:00:00
LUCAS CRAMER AU20-AA-16309 0 0000-00-00 00:00:00.000 0.000 00:00:00
LUCAS CRAMER AU20-ARPU-30169 0 0000-00-00 00:00:00.000 0.000 00:00:00
LUCAS CRAMER AU20-ARPU-56021 0 0000-00-00 00:00:00.000 0.000 00:00:00
LUCAS CRAMER AU20-CALA-0003 0 0000-00-00 00:00:00.000 0.000 00:00:00
LUCAS CRAMER AU20-CORP-4264 0 0000-00-00 00:00:00.000 0.000 00:00:00
LUCAS CRAMER AU20-DBJ-1929 0 0000-00-00 00:00:00.000 0.000 00:00:00
LUCAS CRAMER AU20-GUTZ-0219 0 0000-00-00 00:00:00.000 0.000 00:00:00
LUCAS CRAMER AU20-GWC-0059 0 0000-00-00 00:00:00.000 0.000 00:00:00
LUCAS CRAMER AU20-JEDD-14374 0 0000-00-00 00:00:00.000 0.000 00:00:00
LUCAS CRAMER AU20-LIAN-2034 0 0000-00-00 00:00:00.000 0.000 00:00:00
LUCAS CRAMER AU20-PLAT-18413 0 0000-00-00 00:00:00.000 0.000 00:00:00
LUCAS CRAMER AU20-TBW-20080 0 0000-00-00 00:00:00.000 0.000 00:00:00
LUCAS CRAMER AU20-WPC-1528 0 0000-00-00 00:00:00.000 0.000 00:00:00
LUCAS CRAMER AU20-ZA-7650 0 0000-00-00 00:00:00.000 0.000 00:00:00
ROCKY TOP AU19-CORP-4464 0 0000-00-00 00:00:00.000 0.000 00:00:00
RUETER FAMILY LOFT AU17-CORP-449 0 0000-00-00 00:00:00.000 0.000 00:00:00
RUETER FAMILY LOFT AU18-CORP-2651 0 0000-00-00 00:00:00.000 0.000 00:00:00
TIM GRAVES AU14-CORP-1963 0 0000-00-00 00:00:00.000 0.000 00:00:00
TOPIGEONUSA AU20-CORP-4328 0 0000-00-00 00:00:00.000 0.000 00:00:00
TOPIGEONUSA AU20-CORP-4861 0 0000-00-00 00:00:00.000 0.000 00:00:00